Terminal Aerodrome Forecast
Issued by NWS Dodge City, KS

Home | Current Version | Previous Version | Graphics & Text | Print | Product List | Glossary Off
Versions: 1 2 3 4 5 6 7 8 9 10 11 12 13 14 15 16 17

000
FTUS43 KDDC 231700
TAFDDC
TAF
KDDC 231728Z 2318/2418 19026G33KT P6SM SCT070
     FM232300 19026G33KT P6SM VCTS BKN070CB
     FM240100 19023G30KT P6SM BKN150
     FM240400 34025G35KT P6SM VCTS BKN040CB
     FM240900 36018G28KT P6SM OVC040=

USA.gov is the U.S. government's official web portal to all federal, state and local government web resources and services.